sensor_id;sensor_type;location;lat;lon;timestamp;pressure;altitude;pressure_sealevel;temperature;humidity
29359;BME280;16347;53.232;6.556;2023-04-08T00:02:25;102408.03;;;11.71;49.79
29359;BME280;16347;53.232;6.556;2023-04-08T00:04:53;102402.44;;;11.72;49.69
29359;BME280;16347;53.232;6.556;2023-04-08T00:07:21;102408.31;;;11.46;49.80
29359;BME280;16347;53.232;6.556;2023-04-08T00:09:49;102413.13;;;11.53;49.92
29359;BME280;16347;53.232;6.556;2023-04-08T00:12:17;102413.22;;;11.52;50.31
29359;BME280;16347;53.232;6.556;2023-04-08T00:14:45;102414.25;;;11.51;50.77
29359;BME280;16347;53.232;6.556;2023-04-08T00:17:13;102417.44;;;11.56;50.49
29359;BME280;16347;53.232;6.556;2023-04-08T00:19:42;102414.38;;;11.49;50.89
29359;BME280;16347;53.232;6.556;2023-04-08T00:22:10;102420.78;;;11.59;50.29
29359;BME280;16347;53.232;6.556;2023-04-08T00:24:38;102417.59;;;11.43;50.35
29359;BME280;16347;53.232;6.556;2023-04-08T00:27:06;102419.59;;;11.41;50.59
29359;BME280;16347;53.232;6.556;2023-04-08T00:29:34;102424.16;;;11.29;50.86
29359;BME280;16347;53.232;6.556;2023-04-08T00:32:02;102429.00;;;11.26;51.67
29359;BME280;16347;53.232;6.556;2023-04-08T00:34:30;102428.13;;;11.25;50.89
29359;BME280;16347;53.232;6.556;2023-04-08T00:36:59;102422.56;;;11.27;52.33
29359;BME280;16347;53.232;6.556;2023-04-08T00:39:28;102428.75;;;11.40;52.48
29359;BME280;16347;53.232;6.556;2023-04-08T00:41:56;102430.50;;;11.41;52.76
29359;BME280;16347;53.232;6.556;2023-04-08T00:44:24;102442.22;;;11.53;52.30
29359;BME280;16347;53.232;6.556;2023-04-08T00:46:51;102431.56;;;11.50;51.02
29359;BME280;16347;53.232;6.556;2023-04-08T00:49:19;102433.31;;;11.51;51.69
29359;BME280;16347;53.232;6.556;2023-04-08T00:51:47;102425.88;;;11.53;51.83
29359;BME280;16347;53.232;6.556;2023-04-08T00:54:16;102431.06;;;11.56;51.91
29359;BME280;16347;53.232;6.556;2023-04-08T00:56:44;102435.53;;;11.57;51.92
29359;BME280;16347;53.232;6.556;2023-04-08T00:59:12;102442.31;;;11.62;51.67
29359;BME280;16347;53.232;6.556;2023-04-08T01:01:43;102427.00;;;11.61;51.23
29359;BME280;16347;53.232;6.556;2023-04-08T01:04:20;102428.84;;;11.61;51.94
29359;BME280;16347;53.232;6.556;2023-04-08T01:06:55;102436.78;;;11.53;52.11
29359;BME280;16347;53.232;6.556;2023-04-08T01:09:29;102431.94;;;11.56;52.00
29359;BME280;16347;53.232;6.556;2023-04-08T01:12:01;102436.31;;;11.48;52.49
29359;BME280;16347;53.232;6.556;2023-04-08T01:14:31;102439.50;;;11.53;52.12
29359;BME280;16347;53.232;6.556;2023-04-08T01:17:02;102435.03;;;11.52;51.80
29359;BME280;16347;53.232;6.556;2023-04-08T01:19:34;102442.47;;;11.50;51.91
29359;BME280;16347;53.232;6.556;2023-04-08T01:22:11;102443.59;;;11.47;52.15
29359;BME280;16347;53.232;6.556;2023-04-08T01:24:44;102437.91;;;11.39;52.47
29359;BME280;16347;53.232;6.556;2023-04-08T01:27:16;102440.47;;;11.52;51.57
29359;BME280;16347;53.232;6.556;2023-04-08T01:29:46;102439.28;;;11.45;51.52
29359;BME280;16347;53.232;6.556;2023-04-08T01:32:15;102434.31;;;11.39;52.40
29359;BME280;16347;53.232;6.556;2023-04-08T01:34:44;102440.63;;;11.39;52.25
29359;BME280;16347;53.232;6.556;2023-04-08T01:37:13;102438.91;;;11.38;52.50
29359;BME280;16347;53.232;6.556;2023-04-08T01:39:42;102440.16;;;11.34;52.60
29359;BME280;16347;53.232;6.556;2023-04-08T01:42:11;102443.75;;;11.35;52.34
29359;BME280;16347;53.232;6.556;2023-04-08T01:44:42;102447.44;;;11.33;52.57
29359;BME280;16347;53.232;6.556;2023-04-08T01:47:14;102442.97;;;11.32;52.46
29359;BME280;16347;53.232;6.556;2023-04-08T01:49:43;102446.22;;;11.38;52.42
29359;BME280;16347;53.232;6.556;2023-04-08T01:52:12;102447.09;;;11.38;52.21
29359;BME280;16347;53.232;6.556;2023-04-08T01:54:43;102457.22;;;11.36;52.47
29359;BME280;16347;53.232;6.556;2023-04-08T01:57:14;102453.16;;;11.30;52.12
29359;BME280;16347;53.232;6.556;2023-04-08T01:59:47;102458.84;;;11.27;52.38
29359;BME280;16347;53.232;6.556;2023-04-08T02:02:18;102463.66;;;11.24;52.94
29359;BME280;16347;53.232;6.556;2023-04-08T02:04:46;102457.22;;;11.14;52.81
29359;BME280;16347;53.232;6.556;2023-04-08T02:07:15;102455.38;;;11.14;52.59
29359;BME280;16347;53.232;6.556;2023-04-08T02:09:44;102453.28;;;11.18;52.55
29359;BME280;16347;53.232;6.556;2023-04-08T02:12:12;102454.75;;;11.11;52.44
29359;BME280;16347;53.232;6.556;2023-04-08T02:14:40;102456.34;;;11.13;52.62
29359;BME280;16347;53.232;6.556;2023-04-08T02:17:11;102460.94;;;11.13;53.28
29359;BME280;16347;53.232;6.556;2023-04-08T02:19:43;102452.28;;;11.08;53.01
29359;BME280;16347;53.232;6.556;2023-04-08T02:22:18;102458.72;;;11.07;52.88
29359;BME280;16347;53.232;6.556;2023-04-08T02:24:50;102460.94;;;11.13;52.28
29359;BME280;16347;53.232;6.556;2023-04-08T02:27:19;102461.81;;;11.13;52.65
29359;BME280;16347;53.232;6.556;2023-04-08T02:29:48;102468.22;;;10.90;53.35
29359;BME280;16347;53.232;6.556;2023-04-08T02:32:20;102470.81;;;10.80;53.63
29359;BME280;16347;53.232;6.556;2023-04-08T02:34:51;102473.91;;;10.87;53.42
29359;BME280;16347;53.232;6.556;2023-04-08T02:37:19;102474.63;;;10.89;53.16
29359;BME280;16347;53.232;6.556;2023-04-08T02:39:46;102478.88;;;11.04;52.47
29359;BME280;16347;53.232;6.556;2023-04-08T02:42:14;102467.75;;;11.07;52.15
29359;BME280;16347;53.232;6.556;2023-04-08T02:44:43;102478.72;;;10.95;52.62
29359;BME280;16347;53.232;6.556;2023-04-08T02:47:11;102479.97;;;10.91;52.66
29359;BME280;16347;53.232;6.556;2023-04-08T02:49:40;102478.59;;;10.85;52.93
29359;BME280;16347;53.232;6.556;2023-04-08T02:52:08;102485.38;;;10.79;52.98
29359;BME280;16347;53.232;6.556;2023-04-08T02:54:36;102483.16;;;10.85;53.35
29359;BME280;16347;53.232;6.556;2023-04-08T02:57:04;102483.78;;;10.88;52.74
29359;BME280;16347;53.232;6.556;2023-04-08T02:59:32;102484.16;;;10.84;53.20
29359;BME280;16347;53.232;6.556;2023-04-08T03:02:03;102486.25;;;10.80;53.28
29359;BME280;16347;53.232;6.556;2023-04-08T03:04:31;102486.38;;;10.78;53.28
29359;BME280;16347;53.232;6.556;2023-04-08T03:07:00;102497.16;;;10.80;53.51
29359;BME280;16347;53.232;6.556;2023-04-08T03:09:28;102493.91;;;10.75;53.52
29359;BME280;16347;53.232;6.556;2023-04-08T03:11:55;102494.13;;;10.72;53.40
29359;BME280;16347;53.232;6.556;2023-04-08T03:14:23;102495.09;;;10.60;53.63
29359;BME280;16347;53.232;6.556;2023-04-08T03:16:51;102497.25;;;10.67;53.42
29359;BME280;16347;53.232;6.556;2023-04-08T03:19:19;102490.06;;;10.66;53.26
29359;BME280;16347;53.232;6.556;2023-04-08T03:21:47;102496.00;;;10.71;53.41
29359;BME280;16347;53.232;6.556;2023-04-08T03:24:16;102497.97;;;10.69;52.74
29359;BME280;16347;53.232;6.556;2023-04-08T03:26:44;102486.47;;;10.66;53.45
29359;BME280;16347;53.232;6.556;2023-04-08T03:29:12;102490.78;;;10.57;53.65
29359;BME280;16347;53.232;6.556;2023-04-08T03:31:40;102489.91;;;10.57;53.64
29359;BME280;16347;53.232;6.556;2023-04-08T03:34:08;102492.72;;;10.55;54.34
29359;BME280;16347;53.232;6.556;2023-04-08T03:36:36;102497.31;;;10.55;54.55
29359;BME280;16347;53.232;6.556;2023-04-08T03:39:03;102500.72;;;10.46;54.24
29359;BME280;16347;53.232;6.556;2023-04-08T03:41:33;102505.31;;;10.45;54.68
29359;BME280;16347;53.232;6.556;2023-04-08T03:44:01;102508.78;;;10.47;54.46
29359;BME280;16347;53.232;6.556;2023-04-08T03:46:29;102507.44;;;10.53;54.05
29359;BME280;16347;53.232;6.556;2023-04-08T03:48:57;102500.88;;;10.55;54.78
29359;BME280;16347;53.232;6.556;2023-04-08T03:51:25;102499.91;;;10.56;54.83
29359;BME280;16347;53.232;6.556;2023-04-08T03:53:54;102500.66;;;10.58;54.00
29359;BME280;16347;53.232;6.556;2023-04-08T03:56:21;102492.63;;;10.57;54.25
29359;BME280;16347;53.232;6.556;2023-04-08T03:58:52;102500.25;;;10.52;54.25
29359;BME280;16347;53.232;6.556;2023-04-08T04:01:19;102508.31;;;10.53;54.48
29359;BME280;16347;53.232;6.556;2023-04-08T04:03:47;102506.22;;;10.57;54.67
29359;BME280;16347;53.232;6.556;2023-04-08T04:06:16;102506.84;;;10.60;54.69
29359;BME280;16347;53.232;6.556;2023-04-08T04:08:43;102511.66;;;10.57;54.56
29359;BME280;16347;53.232;6.556;2023-04-08T04:11:12;102508.94;;;10.57;54.76
29359;BME280;16347;53.232;6.556;2023-04-08T04:13:39;102511.44;;;10.60;54.78
29359;BME280;16347;53.232;6.556;2023-04-08T04:16:09;102504.19;;;10.48;55.05
29359;BME280;16347;53.232;6.556;2023-04-08T04:18:37;102509.91;;;10.56;54.60
29359;BME280;16347;53.232;6.556;2023-04-08T04:21:05;102515.25;;;10.57;54.51
29359;BME280;16347;53.232;6.556;2023-04-08T04:23:33;102510.41;;;10.50;55.12
29359;BME280;16347;53.232;6.556;2023-04-08T04:26:06;102516.97;;;10.58;54.37
29359;BME280;16347;53.232;6.556;2023-04-08T04:28:34;102526.59;;;10.51;54.74
29359;BME280;16347;53.232;6.556;2023-04-08T04:31:02;102519.44;;;10.50;54.91
29359;BME280;16347;53.232;6.556;2023-04-08T04:33:32;102528.03;;;10.44;54.93
29359;BME280;16347;53.232;6.556;2023-04-08T04:35:59;102523.13;;;10.25;55.86
29359;BME280;16347;53.232;6.556;2023-04-08T04:38:27;102531.13;;;10.40;55.10
29359;BME280;16347;53.232;6.556;2023-04-08T04:40:55;102527.63;;;10.38;54.89
29359;BME280;16347;53.232;6.556;2023-04-08T04:43:24;102531.13;;;10.40;55.18
29359;BME280;16347;53.232;6.556;2023-04-08T04:45:52;102526.81;;;10.48;54.67
29359;BME280;16347;53.232;6.556;2023-04-08T04:48:20;102528.50;;;10.38;55.06
29359;BME280;16347;53.232;6.556;2023-04-08T04:50:54;102532.25;;;10.48;54.41
29359;BME280;16347;53.232;6.556;2023-04-08T04:53:23;102533.38;;;10.46;54.86
29359;BME280;16347;53.232;6.556;2023-04-08T04:55:52;102533.47;;;10.44;54.68
29359;BME280;16347;53.232;6.556;2023-04-08T04:58:20;102537.06;;;10.45;54.86
29359;BME280;16347;53.232;6.556;2023-04-08T05:00:48;102536.44;;;10.41;55.31
29359;BME280;16347;53.232;6.556;2023-04-08T05:03:16;102542.34;;;10.35;54.75
29359;BME280;16347;53.232;6.556;2023-04-08T05:05:44;102539.28;;;10.40;54.89
29359;BME280;16347;53.232;6.556;2023-04-08T05:08:13;102542.00;;;10.40;55.00
29359;BME280;16347;53.232;6.556;2023-04-08T05:10:41;102543.59;;;10.42;54.85
29359;BME280;16347;53.232;6.556;2023-04-08T05:13:09;102544.34;;;10.44;54.78
29359;BME280;16347;53.232;6.556;2023-04-08T05:15:37;102548.06;;;10.43;55.10
29359;BME280;16347;53.232;6.556;2023-04-08T05:18:05;102550.66;;;10.45;55.03
29359;BME280;16347;53.232;6.556;2023-04-08T05:20:34;102553.50;;;10.43;55.11
29359;BME280;16347;53.232;6.556;2023-04-08T05:23:02;102554.09;;;10.36;55.27
29359;BME280;16347;53.232;6.556;2023-04-08T05:25:31;102551.84;;;10.29;55.19
29359;BME280;16347;53.232;6.556;2023-04-08T05:27:59;102556.47;;;10.40;55.38
29359;BME280;16347;53.232;6.556;2023-04-08T05:30:28;102562.00;;;10.39;56.16
29359;BME280;16347;53.232;6.556;2023-04-08T05:32:56;102568.81;;;10.44;55.79
29359;BME280;16347;53.232;6.556;2023-04-08T05:35:26;102558.81;;;10.45;55.59
29359;BME280;16347;53.232;6.556;2023-04-08T05:37:54;102573.94;;;10.49;56.14
29359;BME280;16347;53.232;6.556;2023-04-08T05:40:22;102565.19;;;10.56;55.90
29359;BME280;16347;53.232;6.556;2023-04-08T05:42:51;102566.41;;;10.52;55.51
29359;BME280;16347;53.232;6.556;2023-04-08T05:45:19;102563.22;;;10.58;55.80
29359;BME280;16347;53.232;6.556;2023-04-08T05:47:47;102570.72;;;10.55;55.61
29359;BME280;16347;53.232;6.556;2023-04-08T05:50:15;102575.38;;;10.42;56.17
29359;BME280;16347;53.232;6.556;2023-04-08T05:52:43;102578.44;;;10.61;56.09
29359;BME280;16347;53.232;6.556;2023-04-08T05:55:12;102583.75;;;10.62;56.08
29359;BME280;16347;53.232;6.556;2023-04-08T05:57:41;102589.09;;;10.64;56.32
29359;BME280;16347;53.232;6.556;2023-04-08T06:00:11;102583.19;;;10.70;55.79
29359;BME280;16347;53.232;6.556;2023-04-08T06:02:39;102585.09;;;10.80;56.64
29359;BME280;16347;53.232;6.556;2023-04-08T06:05:08;102591.78;;;10.88;56.34
29359;BME280;16347;53.232;6.556;2023-04-08T06:07:36;102595.00;;;10.93;56.28
29359;BME280;16347;53.232;6.556;2023-04-08T06:10:04;102591.41;;;10.92;56.40
29359;BME280;16347;53.232;6.556;2023-04-08T06:12:34;102593.25;;;10.92;55.69
29359;BME280;16347;53.232;6.556;2023-04-08T06:15:03;102601.44;;;10.92;56.21
29359;BME280;16347;53.232;6.556;2023-04-08T06:17:34;102603.31;;;10.91;56.28
29359;BME280;16347;53.232;6.556;2023-04-08T06:20:04;102595.75;;;10.95;56.23
29359;BME280;16347;53.232;6.556;2023-04-08T06:22:32;102602.59;;;11.00;56.10
29359;BME280;16347;53.232;6.556;2023-04-08T06:25:00;102606.53;;;10.96;56.33
29359;BME280;16347;53.232;6.556;2023-04-08T06:27:28;102600.78;;;10.88;56.06
29359;BME280;16347;53.232;6.556;2023-04-08T06:29:56;102608.63;;;10.93;56.77
29359;BME280;16347;53.232;6.556;2023-04-08T06:32:24;102606.94;;;11.03;56.86
29359;BME280;16347;53.232;6.556;2023-04-08T06:34:54;102614.13;;;11.04;57.17
29359;BME280;16347;53.232;6.556;2023-04-08T06:37:22;102611.50;;;11.02;57.06
29359;BME280;16347;53.232;6.556;2023-04-08T06:39:50;102620.56;;;11.14;56.58
29359;BME280;16347;53.232;6.556;2023-04-08T06:42:18;102622.44;;;11.13;56.92
29359;BME280;16347;53.232;6.556;2023-04-08T06:45:07;102618.25;;;11.20;56.31
29359;BME280;16347;53.232;6.556;2023-04-08T06:47:35;102613.53;;;11.22;56.30
29359;BME280;16347;53.232;6.556;2023-04-08T06:50:05;102622.47;;;11.24;56.24
29359;BME280;16347;53.232;6.556;2023-04-08T06:52:33;102619.59;;;11.26;56.16
29359;BME280;16347;53.232;6.556;2023-04-08T06:55:01;102618.88;;;11.24;56.25
29359;BME280;16347;53.232;6.556;2023-04-08T06:57:30;102618.72;;;11.25;56.21
29359;BME280;16347;53.232;6.556;2023-04-08T06:59:58;102618.38;;;11.30;56.02
29359;BME280;16347;53.232;6.556;2023-04-08T07:02:26;102615.38;;;11.22;56.42
29359;BME280;16347;53.232;6.556;2023-04-08T07:04:55;102623.69;;;11.20;57.36
29359;BME280;16347;53.232;6.556;2023-04-08T07:07:24;102616.66;;;11.29;57.90
29359;BME280;16347;53.232;6.556;2023-04-08T07:09:52;102624.94;;;11.39;57.00
29359;BME280;16347;53.232;6.556;2023-04-08T07:12:20;102623.09;;;11.39;56.79
29359;BME280;16347;53.232;6.556;2023-04-08T07:14:48;102619.16;;;11.43;56.51
29359;BME280;16347;53.232;6.556;2023-04-08T07:17:16;102628.53;;;11.39;55.85
29359;BME280;16347;53.232;6.556;2023-04-08T07:19:44;102637.78;;;11.25;55.98
29359;BME280;16347;53.232;6.556;2023-04-08T07:22:12;102641.28;;;11.27;56.08
29359;BME280;16347;53.232;6.556;2023-04-08T07:24:43;102646.50;;;11.30;55.62
29359;BME280;16347;53.232;6.556;2023-04-08T07:27:15;102649.31;;;11.29;56.11
29359;BME280;16347;53.232;6.556;2023-04-08T07:29:43;102646.97;;;11.36;56.12
29359;BME280;16347;53.232;6.556;2023-04-08T07:32:11;102657.00;;;11.35;56.19
29359;BME280;16347;53.232;6.556;2023-04-08T07:34:39;102656.78;;;11.38;56.82
29359;BME280;16347;53.232;6.556;2023-04-08T07:37:07;102657.00;;;11.24;57.13
29359;BME280;16347;53.232;6.556;2023-04-08T07:39:35;102660.34;;;11.27;57.19
29359;BME280;16347;53.232;6.556;2023-04-08T07:42:04;102658.56;;;11.15;56.61
29359;BME280;16347;53.232;6.556;2023-04-08T07:44:32;102665.25;;;11.22;56.82
29359;BME280;16347;53.232;6.556;2023-04-08T07:47:00;102665.03;;;11.25;57.36
29359;BME280;16347;53.232;6.556;2023-04-08T07:49:29;102673.72;;;11.30;57.48
29359;BME280;16347;53.232;6.556;2023-04-08T07:51:57;102667.91;;;11.35;57.42
29359;BME280;16347;53.232;6.556;2023-04-08T07:54:26;102663.56;;;11.32;56.96
29359;BME280;16347;53.232;6.556;2023-04-08T07:56:55;102680.16;;;11.29;56.68
29359;BME280;16347;53.232;6.556;2023-04-08T07:59:27;102666.13;;;11.23;56.84
29359;BME280;16347;53.232;6.556;2023-04-08T08:01:56;102678.00;;;11.22;56.54
29359;BME280;16347;53.232;6.556;2023-04-08T08:04:24;102679.44;;;11.04;56.74
29359;BME280;16347;53.232;6.556;2023-04-08T08:06:53;102678.44;;;11.05;56.57
29359;BME280;16347;53.232;6.556;2023-04-08T08:09:21;102683.53;;;11.09;57.52
29359;BME280;16347;53.232;6.556;2023-04-08T08:11:50;102678.81;;;11.11;57.04
29359;BME280;16347;53.232;6.556;2023-04-08T08:14:19;102684.56;;;11.19;57.71
29359;BME280;16347;53.232;6.556;2023-04-08T08:16:49;102678.78;;;11.24;57.68
29359;BME280;16347;53.232;6.556;2023-04-08T08:19:19;102675.22;;;11.35;57.57
29359;BME280;16347;53.232;6.556;2023-04-08T08:21:48;102666.91;;;11.36;57.44
29359;BME280;16347;53.232;6.556;2023-04-08T08:24:18;102672.91;;;11.41;57.64
29359;BME280;16347;53.232;6.556;2023-04-08T08:26:46;102671.16;;;11.40;57.41
29359;BME280;16347;53.232;6.556;2023-04-08T08:29:15;102672.97;;;11.28;56.75
29359;BME280;16347;53.232;6.556;2023-04-08T08:31:44;102683.84;;;11.28;57.19
29359;BME280;16347;53.232;6.556;2023-04-08T08:34:16;102695.75;;;11.27;57.60
29359;BME280;16347;53.232;6.556;2023-04-08T08:36:45;102702.97;;;11.40;57.65
29359;BME280;16347;53.232;6.556;2023-04-08T08:39:14;102712.00;;;11.40;57.46
29359;BME280;16347;53.232;6.556;2023-04-08T08:41:44;102703.59;;;11.43;57.39
29359;BME280;16347;53.232;6.556;2023-04-08T08:44:13;102712.34;;;11.36;57.11
29359;BME280;16347;53.232;6.556;2023-04-08T08:46:43;102710.63;;;11.35;57.79
29359;BME280;16347;53.232;6.556;2023-04-08T08:49:13;102716.22;;;11.44;57.64
29359;BME280;16347;53.232;6.556;2023-04-08T08:51:45;102711.19;;;11.51;57.88
29359;BME280;16347;53.232;6.556;2023-04-08T08:54:14;102714.25;;;11.46;57.44
29359;BME280;16347;53.232;6.556;2023-04-08T08:56:43;102714.50;;;11.43;57.82
29359;BME280;16347;53.232;6.556;2023-04-08T08:59:12;102714.63;;;11.53;58.08
29359;BME280;16347;53.232;6.556;2023-04-08T09:01:41;102712.78;;;11.53;57.89
29359;BME280;16347;53.232;6.556;2023-04-08T09:04:13;102721.47;;;11.58;58.23
29359;BME280;16347;53.232;6.556;2023-04-08T09:06:45;102717.88;;;11.58;58.36
29359;BME280;16347;53.232;6.556;2023-04-08T09:09:16;102723.81;;;11.63;58.12
29359;BME280;16347;53.232;6.556;2023-04-08T09:11:46;102727.31;;;11.65;58.28
29359;BME280;16347;53.232;6.556;2023-04-08T09:14:21;102717.25;;;11.65;57.87
29359;BME280;16347;53.232;6.556;2023-04-08T09:16:51;102717.78;;;11.36;57.73
29359;BME280;16347;53.232;6.556;2023-04-08T09:19:21;102713.81;;;11.28;57.95
29359;BME280;16347;53.232;6.556;2023-04-08T09:24:35;102712.00;;;11.40;58.57
29359;BME280;16347;53.232;6.556;2023-04-08T09:27:04;102705.69;;;11.40;58.49
29359;BME280;16347;53.232;6.556;2023-04-08T09:29:32;102706.69;;;11.50;58.26
29359;BME280;16347;53.232;6.556;2023-04-08T09:32:05;102713.28;;;11.47;58.72
29359;BME280;16347;53.232;6.556;2023-04-08T09:34:33;102712.16;;;11.50;58.69
29359;BME280;16347;53.232;6.556;2023-04-08T09:37:02;102709.97;;;11.55;58.93
29359;BME280;16347;53.232;6.556;2023-04-08T09:39:31;102708.47;;;11.62;58.64
29359;BME280;16347;53.232;6.556;2023-04-08T09:42:05;102711.72;;;11.67;59.02
29359;BME280;16347;53.232;6.556;2023-04-08T09:44:39;102703.28;;;11.70;59.01
29359;BME280;16347;53.232;6.556;2023-04-08T09:47:22;102705.19;;;11.80;59.40
29359;BME280;16347;53.232;6.556;2023-04-08T09:49:56;102704.84;;;11.85;59.09
29359;BME280;16347;53.232;6.556;2023-04-08T09:52:32;102710.03;;;11.77;58.59
29359;BME280;16347;53.232;6.556;2023-04-08T09:55:02;102712.22;;;11.72;58.99
29359;BME280;16347;53.232;6.556;2023-04-08T09:57:39;102714.88;;;11.85;59.41
29359;BME280;16347;53.232;6.556;2023-04-08T10:00:10;102705.09;;;11.93;59.17
29359;BME280;16347;53.232;6.556;2023-04-08T10:02:48;102705.72;;;11.97;58.99
29359;BME280;16347;53.232;6.556;2023-04-08T10:05:20;102700.25;;;11.97;59.61
29359;BME280;16347;53.232;6.556;2023-04-08T10:07:50;102713.78;;;12.09;60.11
29359;BME280;16347;53.232;6.556;2023-04-08T10:10:18;102709.69;;;12.15;60.07
29359;BME280;16347;53.232;6.556;2023-04-08T10:12:49;102705.22;;;12.14;59.20
29359;BME280;16347;53.232;6.556;2023-04-08T10:15:25;102716.75;;;12.17;59.62
29359;BME280;16347;53.232;6.556;2023-04-08T10:17:54;102711.03;;;12.09;59.46
29359;BME280;16347;53.232;6.556;2023-04-08T10:20:42;102717.63;;;12.18;59.36
29359;BME280;16347;53.232;6.556;2023-04-08T10:23:12;102726.94;;;12.15;59.69
29359;BME280;16347;53.232;6.556;2023-04-08T10:25:41;102724.69;;;12.20;60.42
29359;BME280;16347;53.232;6.556;2023-04-08T10:28:24;102728.03;;;12.24;59.62
29359;BME280;16347;53.232;6.556;2023-04-08T10:30:53;102723.47;;;12.24;59.53
29359;BME280;16347;53.232;6.556;2023-04-08T10:33:23;102727.69;;;12.28;59.22
29359;BME280;16347;53.232;6.556;2023-04-08T10:35:59;102724.56;;;12.33;59.83
29359;BME280;16347;53.232;6.556;2023-04-08T10:38:28;102729.91;;;12.34;59.93
29359;BME280;16347;53.232;6.556;2023-04-08T10:40:56;102724.44;;;12.34;59.69
29359;BME280;16347;53.232;6.556;2023-04-08T10:43:25;102723.22;;;12.39;59.94
29359;BME280;16347;53.232;6.556;2023-04-08T10:45:53;102715.50;;;12.44;59.97
29359;BME280;16347;53.232;6.556;2023-04-08T10:48:22;102707.56;;;12.52;59.78
29359;BME280;16347;53.232;6.556;2023-04-08T10:50:51;102711.41;;;12.49;59.60
29359;BME280;16347;53.232;6.556;2023-04-08T10:53:24;102710.03;;;12.55;59.70
29359;BME280;16347;53.232;6.556;2023-04-08T10:55:52;102706.44;;;12.54;60.03
29359;BME280;16347;53.232;6.556;2023-04-08T10:58:20;102706.06;;;12.59;59.45
29359;BME280;16347;53.232;6.556;2023-04-08T11:00:49;102698.72;;;12.59;59.63
29359;BME280;16347;53.232;6.556;2023-04-08T11:03:18;102701.59;;;12.58;59.68
29359;BME280;16347;53.232;6.556;2023-04-08T11:05:48;102701.72;;;12.56;59.00
29359;BME280;16347;53.232;6.556;2023-04-08T11:08:17;102693.06;;;12.51;59.18
29359;BME280;16347;53.232;6.556;2023-04-08T11:10:47;102699.66;;;12.38;60.17
29359;BME280;16347;53.232;6.556;2023-04-08T11:13:15;102703.00;;;12.30;60.14
29359;BME280;16347;53.232;6.556;2023-04-08T11:15:44;102696.56;;;12.31;60.28
29359;BME280;16347;53.232;6.556;2023-04-08T11:18:14;102700.41;;;12.17;60.55
29359;BME280;16347;53.232;6.556;2023-04-08T11:20:42;102698.41;;;12.19;60.89
29359;BME280;16347;53.232;6.556;2023-04-08T11:23:11;102686.88;;;12.27;60.91
29359;BME280;16347;53.232;6.556;2023-04-08T11:25:40;102686.38;;;12.33;61.21
29359;BME280;16347;53.232;6.556;2023-04-08T11:28:10;102682.16;;;12.40;61.20
29359;BME280;16347;53.232;6.556;2023-04-08T11:30:39;102688.13;;;12.45;61.36
29359;BME280;16347;53.232;6.556;2023-04-08T11:33:07;102685.84;;;12.50;61.35
29359;BME280;16347;53.232;6.556;2023-04-08T11:35:40;102689.56;;;12.60;61.06
29359;BME280;16347;53.232;6.556;2023-04-08T11:38:09;102692.66;;;12.67;61.39
29359;BME280;16347;53.232;6.556;2023-04-08T11:40:38;102685.94;;;12.71;61.67
29359;BME280;16347;53.232;6.556;2023-04-08T11:43:09;102687.88;;;12.80;60.90
29359;BME280;16347;53.232;6.556;2023-04-08T11:45:37;102682.06;;;12.84;60.65
29359;BME280;16347;53.232;6.556;2023-04-08T11:48:09;102689.88;;;12.89;60.77
29359;BME280;16347;53.232;6.556;2023-04-08T11:50:37;102699.91;;;12.89;60.59
29359;BME280;16347;53.232;6.556;2023-04-08T11:53:16;102696.94;;;12.92;61.15
29359;BME280;16347;53.232;6.556;2023-04-08T11:55:46;102704.50;;;12.88;60.81
29359;BME280;16347;53.232;6.556;2023-04-08T11:58:15;102698.28;;;12.86;60.29
29359;BME280;16347;53.232;6.556;2023-04-08T12:00:44;102706.88;;;12.81;59.94
29359;BME280;16347;53.232;6.556;2023-04-08T12:03:12;102707.75;;;12.82;60.21
29359;BME280;16347;53.232;6.556;2023-04-08T12:05:40;102711.03;;;12.65;60.44
29359;BME280;16347;53.232;6.556;2023-04-08T12:08:09;102715.97;;;12.71;60.44
29359;BME280;16347;53.232;6.556;2023-04-08T12:10:39;102710.25;;;12.63;60.62
29359;BME280;16347;53.232;6.556;2023-04-08T12:13:07;102712.00;;;12.64;60.86
29359;BME280;16347;53.232;6.556;2023-04-08T12:15:35;102707.41;;;12.64;60.68
29359;BME280;16347;53.232;6.556;2023-04-08T12:18:03;102705.81;;;12.62;60.81
29359;BME280;16347;53.232;6.556;2023-04-08T12:20:31;102697.47;;;12.74;61.14
29359;BME280;16347;53.232;6.556;2023-04-08T12:23:00;102693.50;;;12.78;60.48
29359;BME280;16347;53.232;6.556;2023-04-08T12:25:28;102706.38;;;12.88;60.31
29359;BME280;16347;53.232;6.556;2023-04-08T12:27:58;102699.31;;;12.85;60.42
29359;BME280;16347;53.232;6.556;2023-04-08T12:30:26;102700.78;;;12.89;59.79
29359;BME280;16347;53.232;6.556;2023-04-08T12:32:54;102702.41;;;12.80;60.08
29359;BME280;16347;53.232;6.556;2023-04-08T12:35:23;102697.44;;;12.85;59.99
29359;BME280;16347;53.232;6.556;2023-04-08T12:37:52;102704.25;;;12.91;60.13
29359;BME280;16347;53.232;6.556;2023-04-08T12:40:21;102703.72;;;12.97;59.93
29359;BME280;16347;53.232;6.556;2023-04-08T12:42:48;102703.09;;;13.05;59.97
29359;BME280;16347;53.232;6.556;2023-04-08T12:45:18;102701.50;;;13.02;59.67
29359;BME280;16347;53.232;6.556;2023-04-08T12:47:46;102702.75;;;13.09;59.36
29359;BME280;16347;53.232;6.556;2023-04-08T12:50:14;102705.22;;;13.12;59.23
29359;BME280;16347;53.232;6.556;2023-04-08T12:52:42;102705.81;;;13.16;59.22
29359;BME280;16347;53.232;6.556;2023-04-08T12:55:10;102696.06;;;13.23;59.25
29359;BME280;16347;53.232;6.556;2023-04-08T12:57:38;102703.78;;;13.29;59.02
29359;BME280;16347;53.232;6.556;2023-04-08T13:00:07;102707.38;;;13.29;58.79
29359;BME280;16347;53.232;6.556;2023-04-08T13:02:38;102713.41;;;13.33;59.03
29359;BME280;16347;53.232;6.556;2023-04-08T13:05:07;102713.41;;;13.33;58.89